sensor_id;sensor_type;location;lat;lon;timestamp;P1;durP1;ratioP1;P2;durP2;ratioP2
69305;SDS011;56427;51.580;4.656;2023-09-18T00:02:25;24.67;;;19.00;;
69305;SDS011;56427;51.580;4.656;2023-09-18T00:04:51;23.15;;;17.00;;
69305;SDS011;56427;51.580;4.656;2023-09-18T00:07:17;26.27;;;18.42;;
69305;SDS011;56427;51.580;4.656;2023-09-18T00:09:42;25.83;;;18.63;;
69305;SDS011;56427;51.580;4.656;2023-09-18T00:12:08;26.87;;;19.27;;
69305;SDS011;56427;51.580;4.656;2023-09-18T00:14:34;23.30;;;18.40;;
69305;SDS011;56427;51.580;4.656;2023-09-18T00:17:01;21.17;;;16.27;;
69305;SDS011;56427;51.580;4.656;2023-09-18T00:19:26;26.37;;;16.33;;
69305;SDS011;56427;51.580;4.656;2023-09-18T00:21:51;21.63;;;16.60;;
69305;SDS011;56427;51.580;4.656;2023-09-18T00:24:17;22.33;;;15.75;;
69305;SDS011;56427;51.580;4.656;2023-09-18T00:26:43;19.37;;;15.70;;
69305;SDS011;56427;51.580;4.656;2023-09-18T00:29:08;25.43;;;16.73;;
69305;SDS011;56427;51.580;4.656;2023-09-18T00:31:33;26.10;;;17.43;;
69305;SDS011;56427;51.580;4.656;2023-09-18T00:33:59;20.87;;;15.77;;
69305;SDS011;56427;51.580;4.656;2023-09-18T00:36:24;23.33;;;15.98;;
69305;SDS011;56427;51.580;4.656;2023-09-18T00:38:49;23.23;;;16.07;;
69305;SDS011;56427;51.580;4.656;2023-09-18T00:41:15;24.27;;;15.63;;
69305;SDS011;56427;51.580;4.656;2023-09-18T00:43:40;22.33;;;16.50;;
69305;SDS011;56427;51.580;4.656;2023-09-18T00:46:05;22.03;;;16.70;;
69305;SDS011;56427;51.580;4.656;2023-09-18T00:48:31;23.90;;;16.42;;
69305;SDS011;56427;51.580;4.656;2023-09-18T00:50:57;25.53;;;17.13;;
69305;SDS011;56427;51.580;4.656;2023-09-18T00:53:23;26.25;;;16.80;;
69305;SDS011;56427;51.580;4.656;2023-09-18T00:55:50;23.23;;;16.23;;
69305;SDS011;56427;51.580;4.656;2023-09-18T00:58:19;25.00;;;17.92;;
69305;SDS011;56427;51.580;4.656;2023-09-18T01:00:45;23.25;;;17.10;;
69305;SDS011;56427;51.580;4.656;2023-09-18T01:03:11;24.23;;;18.30;;
69305;SDS011;56427;51.580;4.656;2023-09-18T01:05:37;20.20;;;15.73;;
69305;SDS011;56427;51.580;4.656;2023-09-18T01:08:04;22.75;;;15.93;;
69305;SDS011;56427;51.580;4.656;2023-09-18T01:10:32;26.52;;;17.42;;
69305;SDS011;56427;51.580;4.656;2023-09-18T01:13:07;24.10;;;16.83;;
69305;SDS011;56427;51.580;4.656;2023-09-18T01:15:54;23.80;;;16.58;;
69305;SDS011;56427;51.580;4.656;2023-09-18T01:18:26;28.00;;;17.10;;
69305;SDS011;56427;51.580;4.656;2023-09-18T01:20:52;21.02;;;16.00;;
69305;SDS011;56427;51.580;4.656;2023-09-18T01:23:18;24.07;;;16.40;;
69305;SDS011;56427;51.580;4.656;2023-09-18T01:25:43;22.23;;;16.33;;
69305;SDS011;56427;51.580;4.656;2023-09-18T01:28:09;22.40;;;15.93;;
69305;SDS011;56427;51.580;4.656;2023-09-18T01:30:34;23.37;;;15.47;;
69305;SDS011;56427;51.580;4.656;2023-09-18T01:33:00;22.93;;;16.67;;
69305;SDS011;56427;51.580;4.656;2023-09-18T01:35:27;21.85;;;17.23;;
69305;SDS011;56427;51.580;4.656;2023-09-18T01:37:55;23.38;;;16.98;;
69305;SDS011;56427;51.580;4.656;2023-09-18T01:40:22;21.20;;;15.98;;
69305;SDS011;56427;51.580;4.656;2023-09-18T01:42:49;19.40;;;15.07;;
69305;SDS011;56427;51.580;4.656;2023-09-18T01:45:15;22.10;;;15.80;;
69305;SDS011;56427;51.580;4.656;2023-09-18T01:47:40;20.47;;;15.43;;
69305;SDS011;56427;51.580;4.656;2023-09-18T01:50:06;20.77;;;15.43;;
69305;SDS011;56427;51.580;4.656;2023-09-18T01:52:32;23.75;;;16.27;;
69305;SDS011;56427;51.580;4.656;2023-09-18T01:54:59;20.65;;;16.17;;
69305;SDS011;56427;51.580;4.656;2023-09-18T01:57:25;20.37;;;14.53;;
69305;SDS011;56427;51.580;4.656;2023-09-18T01:59:51;19.40;;;14.83;;
69305;SDS011;56427;51.580;4.656;2023-09-18T02:02:16;20.30;;;14.48;;
69305;SDS011;56427;51.580;4.656;2023-09-18T02:04:41;20.03;;;13.80;;
69305;SDS011;56427;51.580;4.656;2023-09-18T02:07:07;17.27;;;13.17;;
69305;SDS011;56427;51.580;4.656;2023-09-18T02:09:32;18.33;;;12.87;;
69305;SDS011;56427;51.580;4.656;2023-09-18T02:11:58;18.67;;;12.15;;
69305;SDS011;56427;51.580;4.656;2023-09-18T02:14:24;17.80;;;12.50;;
69305;SDS011;56427;51.580;4.656;2023-09-18T02:16:49;18.75;;;11.90;;
69305;SDS011;56427;51.580;4.656;2023-09-18T02:19:16;20.17;;;11.70;;
69305;SDS011;56427;51.580;4.656;2023-09-18T02:21:45;16.17;;;11.33;;
69305;SDS011;56427;51.580;4.656;2023-09-18T02:24:11;16.75;;;11.63;;
69305;SDS011;56427;51.580;4.656;2023-09-18T02:26:36;16.40;;;11.00;;
69305;SDS011;56427;51.580;4.656;2023-09-18T02:29:03;20.10;;;11.73;;
69305;SDS011;56427;51.580;4.656;2023-09-18T02:31:39;23.02;;;12.25;;
69305;SDS011;56427;51.580;4.656;2023-09-18T02:34:05;20.70;;;12.13;;
69305;SDS011;56427;51.580;4.656;2023-09-18T02:36:32;17.00;;;11.93;;
69305;SDS011;56427;51.580;4.656;2023-09-18T02:38:58;15.95;;;11.75;;
69305;SDS011;56427;51.580;4.656;2023-09-18T02:41:23;16.27;;;10.47;;
69305;SDS011;56427;51.580;4.656;2023-09-18T02:43:49;15.88;;;11.50;;
69305;SDS011;56427;51.580;4.656;2023-09-18T02:46:14;19.57;;;11.40;;
69305;SDS011;56427;51.580;4.656;2023-09-18T02:48:39;19.07;;;11.20;;
69305;SDS011;56427;51.580;4.656;2023-09-18T02:51:05;17.93;;;12.17;;
69305;SDS011;56427;51.580;4.656;2023-09-18T02:53:30;20.10;;;12.80;;
69305;SDS011;56427;51.580;4.656;2023-09-18T02:55:56;28.25;;;14.88;;
69305;SDS011;56427;51.580;4.656;2023-09-18T02:58:23;32.47;;;15.00;;
69305;SDS011;56427;51.580;4.656;2023-09-18T03:00:51;17.33;;;10.88;;
69305;SDS011;56427;51.580;4.656;2023-09-18T03:03:18;14.20;;;9.90;;
69305;SDS011;56427;51.580;4.656;2023-09-18T03:05:43;12.23;;;9.00;;
69305;SDS011;56427;51.580;4.656;2023-09-18T03:08:10;12.52;;;7.55;;
69305;SDS011;56427;51.580;4.656;2023-09-18T03:10:36;11.25;;;7.40;;
69305;SDS011;56427;51.580;4.656;2023-09-18T03:13:05;10.13;;;6.50;;
69305;SDS011;56427;51.580;4.656;2023-09-18T03:15:31;9.97;;;6.57;;
69305;SDS011;56427;51.580;4.656;2023-09-18T03:17:59;12.80;;;7.30;;
69305;SDS011;56427;51.580;4.656;2023-09-18T03:20:26;9.17;;;6.90;;
69305;SDS011;56427;51.580;4.656;2023-09-18T03:22:54;12.77;;;7.63;;
69305;SDS011;56427;51.580;4.656;2023-09-18T03:25:21;11.35;;;6.93;;
69305;SDS011;56427;51.580;4.656;2023-09-18T03:27:48;9.18;;;7.28;;
69305;SDS011;56427;51.580;4.656;2023-09-18T03:30:17;12.07;;;6.68;;
69305;SDS011;56427;51.580;4.656;2023-09-18T03:32:46;12.57;;;7.63;;
69305;SDS011;56427;51.580;4.656;2023-09-18T03:35:13;12.50;;;8.13;;
69305;SDS011;56427;51.580;4.656;2023-09-18T03:37:46;15.73;;;8.25;;
69305;SDS011;56427;51.580;4.656;2023-09-18T03:40:12;12.07;;;7.47;;
69305;SDS011;56427;51.580;4.656;2023-09-18T03:42:37;14.43;;;9.13;;
69305;SDS011;56427;51.580;4.656;2023-09-18T03:45:05;14.93;;;9.85;;
69305;SDS011;56427;51.580;4.656;2023-09-18T03:47:31;18.48;;;11.05;;
69305;SDS011;56427;51.580;4.656;2023-09-18T03:49:56;14.07;;;10.23;;
69305;SDS011;56427;51.580;4.656;2023-09-18T03:52:22;16.13;;;11.00;;
69305;SDS011;56427;51.580;4.656;2023-09-18T03:54:49;15.88;;;11.13;;
69305;SDS011;56427;51.580;4.656;2023-09-18T03:57:14;16.20;;;11.17;;
69305;SDS011;56427;51.580;4.656;2023-09-18T03:59:40;20.55;;;13.18;;
69305;SDS011;56427;51.580;4.656;2023-09-18T04:02:06;16.53;;;11.60;;
69305;SDS011;56427;51.580;4.656;2023-09-18T04:04:31;19.50;;;12.20;;
69305;SDS011;56427;51.580;4.656;2023-09-18T04:06:57;16.08;;;12.15;;
69305;SDS011;56427;51.580;4.656;2023-09-18T04:09:22;13.87;;;12.10;;
69305;SDS011;56427;51.580;4.656;2023-09-18T04:11:48;16.27;;;12.43;;
69305;SDS011;56427;51.580;4.656;2023-09-18T04:14:13;20.60;;;14.50;;
69305;SDS011;56427;51.580;4.656;2023-09-18T04:16:39;20.85;;;14.57;;
69305;SDS011;56427;51.580;4.656;2023-09-18T04:19:06;21.48;;;15.45;;
69305;SDS011;56427;51.580;4.656;2023-09-18T04:21:32;29.70;;;18.00;;
69305;SDS011;56427;51.580;4.656;2023-09-18T04:23:58;19.77;;;14.90;;
69305;SDS011;56427;51.580;4.656;2023-09-18T04:26:26;23.50;;;17.07;;
69305;SDS011;56427;51.580;4.656;2023-09-18T04:28:56;24.63;;;16.38;;
69305;SDS011;56427;51.580;4.656;2023-09-18T04:31:22;23.55;;;15.35;;
69305;SDS011;56427;51.580;4.656;2023-09-18T04:33:48;23.33;;;15.60;;
69305;SDS011;56427;51.580;4.656;2023-09-18T04:36:13;21.47;;;13.73;;
69305;SDS011;56427;51.580;4.656;2023-09-18T04:38:39;21.83;;;13.95;;
69305;SDS011;56427;51.580;4.656;2023-09-18T04:41:04;19.67;;;13.23;;
69305;SDS011;56427;51.580;4.656;2023-09-18T04:43:33;17.33;;;12.73;;
69305;SDS011;56427;51.580;4.656;2023-09-18T04:46:00;20.63;;;12.77;;
69305;SDS011;56427;51.580;4.656;2023-09-18T04:48:27;15.63;;;11.00;;
69305;SDS011;56427;51.580;4.656;2023-09-18T04:50:52;19.25;;;12.02;;
69305;SDS011;56427;51.580;4.656;2023-09-18T04:53:18;16.43;;;11.47;;
69305;SDS011;56427;51.580;4.656;2023-09-18T04:55:43;15.83;;;9.00;;
69305;SDS011;56427;51.580;4.656;2023-09-18T04:58:08;15.07;;;9.87;;
69305;SDS011;56427;51.580;4.656;2023-09-18T05:00:34;14.17;;;9.07;;
69305;SDS011;56427;51.580;4.656;2023-09-18T05:02:59;11.38;;;6.72;;
69305;SDS011;56427;51.580;4.656;2023-09-18T05:05:26;10.83;;;6.10;;
69305;SDS011;56427;51.580;4.656;2023-09-18T05:07:53;10.02;;;4.53;;
69305;SDS011;56427;51.580;4.656;2023-09-18T05:10:19;7.75;;;4.32;;
69305;SDS011;56427;51.580;4.656;2023-09-18T05:12:44;8.47;;;4.10;;
69305;SDS011;56427;51.580;4.656;2023-09-18T05:15:10;7.35;;;4.03;;
69305;SDS011;56427;51.580;4.656;2023-09-18T05:17:42;7.00;;;3.47;;
69305;SDS011;56427;51.580;4.656;2023-09-18T05:20:10;6.60;;;3.57;;
69305;SDS011;56427;51.580;4.656;2023-09-18T05:22:41;6.65;;;3.47;;
69305;SDS011;56427;51.580;4.656;2023-09-18T05:25:07;7.00;;;3.60;;
69305;SDS011;56427;51.580;4.656;2023-09-18T05:27:35;8.35;;;3.40;;
69305;SDS011;56427;51.580;4.656;2023-09-18T05:30:09;6.55;;;3.67;;
69305;SDS011;56427;51.580;4.656;2023-09-18T05:32:40;5.97;;;3.50;;
69305;SDS011;56427;51.580;4.656;2023-09-18T05:35:07;7.45;;;4.10;;
69305;SDS011;56427;51.580;4.656;2023-09-18T05:37:35;9.40;;;4.15;;
69305;SDS011;56427;51.580;4.656;2023-09-18T05:40:04;8.88;;;4.07;;
69305;SDS011;56427;51.580;4.656;2023-09-18T05:42:30;6.45;;;4.00;;
69305;SDS011;56427;51.580;4.656;2023-09-18T05:44:56;10.20;;;4.50;;
69305;SDS011;56427;51.580;4.656;2023-09-18T05:47:22;6.75;;;4.30;;
69305;SDS011;56427;51.580;4.656;2023-09-18T05:49:48;10.25;;;5.45;;
69305;SDS011;56427;51.580;4.656;2023-09-18T05:52:13;9.33;;;4.87;;
69305;SDS011;56427;51.580;4.656;2023-09-18T05:54:39;9.23;;;5.13;;
69305;SDS011;56427;51.580;4.656;2023-09-18T05:57:04;12.53;;;6.23;;
69305;SDS011;56427;51.580;4.656;2023-09-18T05:59:29;10.53;;;5.87;;
69305;SDS011;56427;51.580;4.656;2023-09-18T06:01:56;11.18;;;5.80;;
69305;SDS011;56427;51.580;4.656;2023-09-18T06:04:21;12.17;;;6.00;;
69305;SDS011;56427;51.580;4.656;2023-09-18T06:06:48;13.38;;;6.57;;
69305;SDS011;56427;51.580;4.656;2023-09-18T06:09:14;12.77;;;7.45;;
69305;SDS011;56427;51.580;4.656;2023-09-18T06:11:39;12.93;;;7.80;;
69305;SDS011;56427;51.580;4.656;2023-09-18T06:14:05;12.30;;;7.83;;
69305;SDS011;56427;51.580;4.656;2023-09-18T06:16:30;13.33;;;7.87;;
69305;SDS011;56427;51.580;4.656;2023-09-18T06:18:56;12.13;;;7.63;;
69305;SDS011;56427;51.580;4.656;2023-09-18T06:21:21;12.93;;;7.57;;
69305;SDS011;56427;51.580;4.656;2023-09-18T06:23:46;12.90;;;8.13;;
69305;SDS011;56427;51.580;4.656;2023-09-18T06:26:12;13.57;;;7.72;;
69305;SDS011;56427;51.580;4.656;2023-09-18T06:28:38;7.77;;;6.20;;
69305;SDS011;56427;51.580;4.656;2023-09-18T06:31:04;10.15;;;6.80;;
69305;SDS011;56427;51.580;4.656;2023-09-18T06:33:29;10.80;;;5.77;;
69305;SDS011;56427;51.580;4.656;2023-09-18T06:35:55;8.80;;;5.65;;
69305;SDS011;56427;51.580;4.656;2023-09-18T06:38:21;13.37;;;7.07;;
69305;SDS011;56427;51.580;4.656;2023-09-18T06:40:46;8.70;;;5.80;;
69305;SDS011;56427;51.580;4.656;2023-09-18T06:43:12;9.15;;;5.60;;
69305;SDS011;56427;51.580;4.656;2023-09-18T06:45:38;10.43;;;6.40;;
69305;SDS011;56427;51.580;4.656;2023-09-18T06:48:04;9.25;;;6.20;;
69305;SDS011;56427;51.580;4.656;2023-09-18T06:50:30;11.37;;;6.40;;
69305;SDS011;56427;51.580;4.656;2023-09-18T06:52:55;8.70;;;6.30;;
69305;SDS011;56427;51.580;4.656;2023-09-18T06:55:21;12.87;;;6.00;;
69305;SDS011;56427;51.580;4.656;2023-09-18T06:57:47;9.07;;;6.75;;
69305;SDS011;56427;51.580;4.656;2023-09-18T07:00:15;7.10;;;5.25;;
69305;SDS011;56427;51.580;4.656;2023-09-18T07:02:43;8.05;;;5.53;;
69305;SDS011;56427;51.580;4.656;2023-09-18T07:05:09;10.50;;;5.50;;
69305;SDS011;56427;51.580;4.656;2023-09-18T07:07:34;6.90;;;5.37;;
69305;SDS011;56427;51.580;4.656;2023-09-18T07:09:59;11.27;;;5.60;;
69305;SDS011;56427;51.580;4.656;2023-09-18T07:12:25;7.43;;;4.35;;
69305;SDS011;56427;51.580;4.656;2023-09-18T07:14:50;6.07;;;4.53;;
69305;SDS011;56427;51.580;4.656;2023-09-18T07:17:16;6.67;;;4.23;;
69305;SDS011;56427;51.580;4.656;2023-09-18T07:19:41;7.13;;;4.50;;
69305;SDS011;56427;51.580;4.656;2023-09-18T07:22:06;7.60;;;4.70;;
69305;SDS011;56427;51.580;4.656;2023-09-18T07:24:32;7.20;;;4.40;;
69305;SDS011;56427;51.580;4.656;2023-09-18T07:26:58;8.57;;;4.72;;
69305;SDS011;56427;51.580;4.656;2023-09-18T07:29:24;7.03;;;5.27;;
69305;SDS011;56427;51.580;4.656;2023-09-18T07:31:52;10.50;;;5.50;;
69305;SDS011;56427;51.580;4.656;2023-09-18T07:34:18;8.18;;;5.10;;
69305;SDS011;56427;51.580;4.656;2023-09-18T07:36:43;7.63;;;4.80;;
69305;SDS011;56427;51.580;4.656;2023-09-18T07:39:09;6.80;;;4.30;;
69305;SDS011;56427;51.580;4.656;2023-09-18T07:41:36;9.55;;;4.60;;
69305;SDS011;56427;51.580;4.656;2023-09-18T07:44:02;9.15;;;4.82;;
69305;SDS011;56427;51.580;4.656;2023-09-18T07:46:28;6.73;;;4.70;;
69305;SDS011;56427;51.580;4.656;2023-09-18T07:48:54;6.65;;;4.30;;
69305;SDS011;56427;51.580;4.656;2023-09-18T07:51:20;7.78;;;4.40;;
69305;SDS011;56427;51.580;4.656;2023-09-18T07:53:45;13.03;;;4.60;;
69305;SDS011;56427;51.580;4.656;2023-09-18T07:56:11;8.68;;;4.53;;
69305;SDS011;56427;51.580;4.656;2023-09-18T07:58:37;9.43;;;5.30;;
69305;SDS011;56427;51.580;4.656;2023-09-18T08:01:04;7.82;;;5.05;;
69305;SDS011;56427;51.580;4.656;2023-09-18T08:03:31;8.27;;;4.63;;
69305;SDS011;56427;51.580;4.656;2023-09-18T08:05:56;7.83;;;4.20;;
69305;SDS011;56427;51.580;4.656;2023-09-18T08:08:22;9.18;;;4.80;;
69305;SDS011;56427;51.580;4.656;2023-09-18T08:10:51;7.90;;;4.63;;
69305;SDS011;56427;51.580;4.656;2023-09-18T08:13:17;7.72;;;3.72;;
69305;SDS011;56427;51.580;4.656;2023-09-18T08:15:44;5.55;;;3.22;;
69305;SDS011;56427;51.580;4.656;2023-09-18T08:18:11;5.03;;;3.45;;
69305;SDS011;56427;51.580;4.656;2023-09-18T08:20:41;5.85;;;3.70;;
69305;SDS011;56427;51.580;4.656;2023-09-18T08:23:09;6.23;;;3.93;;
69305;SDS011;56427;51.580;4.656;2023-09-18T08:25:36;5.70;;;4.20;;
69305;SDS011;56427;51.580;4.656;2023-09-18T08:28:02;5.70;;;4.25;;
69305;SDS011;56427;51.580;4.656;2023-09-18T08:30:28;8.52;;;4.63;;
69305;SDS011;56427;51.580;4.656;2023-09-18T08:32:53;8.33;;;4.63;;
69305;SDS011;56427;51.580;4.656;2023-09-18T08:35:19;7.73;;;4.10;;
69305;SDS011;56427;51.580;4.656;2023-09-18T08:37:45;6.63;;;5.05;;
69305;SDS011;56427;51.580;4.656;2023-09-18T08:40:11;7.60;;;4.70;;
69305;SDS011;56427;51.580;4.656;2023-09-18T08:42:39;6.68;;;4.93;;
69305;SDS011;56427;51.580;4.656;2023-09-18T08:45:09;6.30;;;5.03;;
69305;SDS011;56427;51.580;4.656;2023-09-18T08:47:37;7.45;;;5.50;;
69305;SDS011;56427;51.580;4.656;2023-09-18T08:50:05;7.95;;;5.93;;
69305;SDS011;56427;51.580;4.656;2023-09-18T08:52:33;7.97;;;5.20;;
69305;SDS011;56427;51.580;4.656;2023-09-18T08:55:00;7.63;;;4.93;;
69305;SDS011;56427;51.580;4.656;2023-09-18T08:57:26;8.38;;;4.53;;
69305;SDS011;56427;51.580;4.656;2023-09-18T08:59:55;6.10;;;4.10;;
69305;SDS011;56427;51.580;4.656;2023-09-18T09:02:22;8.90;;;4.57;;
69305;SDS011;56427;51.580;4.656;2023-09-18T09:04:48;9.10;;;4.70;;
69305;SDS011;56427;51.580;4.656;2023-09-18T09:07:14;6.37;;;3.83;;
69305;SDS011;56427;51.580;4.656;2023-09-18T09:09:40;7.93;;;4.65;;
69305;SDS011;56427;51.580;4.656;2023-09-18T09:12:06;6.55;;;4.57;;
69305;SDS011;56427;51.580;4.656;2023-09-18T09:14:32;7.40;;;4.77;;
69305;SDS011;56427;51.580;4.656;2023-09-18T09:16:58;8.60;;;5.03;;
69305;SDS011;56427;51.580;4.656;2023-09-18T09:19:28;7.03;;;4.60;;
69305;SDS011;56427;51.580;4.656;2023-09-18T09:22:07;9.32;;;4.80;;
69305;SDS011;56427;51.580;4.656;2023-09-18T09:27:03;10.55;;;4.45;;
69305;SDS011;56427;51.580;4.656;2023-09-18T09:29:28;10.63;;;4.70;;
69305;SDS011;56427;51.580;4.656;2023-09-18T09:31:55;11.52;;;5.43;;
69305;SDS011;56427;51.580;4.656;2023-09-18T09:34:25;10.15;;;4.85;;
69305;SDS011;56427;51.580;4.656;2023-09-18T09:36:54;6.90;;;4.93;;
69305;SDS011;56427;51.580;4.656;2023-09-18T09:39:21;12.00;;;5.88;;
69305;SDS011;56427;51.580;4.656;2023-09-18T09:41:50;11.03;;;4.67;;
69305;SDS011;56427;51.580;4.656;2023-09-18T09:44:16;8.90;;;4.57;;
69305;SDS011;56427;51.580;4.656;2023-09-18T09:46:46;9.17;;;4.53;;
69305;SDS011;56427;51.580;4.656;2023-09-18T09:49:16;7.33;;;4.60;;
69305;SDS011;56427;51.580;4.656;2023-09-18T09:51:42;7.05;;;4.10;;
69305;SDS011;56427;51.580;4.656;2023-09-18T09:54:08;7.65;;;4.40;;
69305;SDS011;56427;51.580;4.656;2023-09-18T09:56:43;5.73;;;3.53;;
69305;SDS011;56427;51.580;4.656;2023-09-18T09:59:21;5.95;;;3.58;;
69305;SDS011;56427;51.580;4.656;2023-09-18T10:01:47;10.77;;;4.53;;
69305;SDS011;56427;51.580;4.656;2023-09-18T10:04:15;8.03;;;5.07;;
69305;SDS011;56427;51.580;4.656;2023-09-18T10:06:47;7.85;;;4.63;;
69305;SDS011;56427;51.580;4.656;2023-09-18T10:09:21;9.23;;;4.88;;
69305;SDS011;56427;51.580;4.656;2023-09-18T10:11:51;7.18;;;4.78;;
69305;SDS011;56427;51.580;4.656;2023-09-18T10:14:21;12.32;;;5.85;;
69305;SDS011;56427;51.580;4.656;2023-09-18T10:16:55;9.13;;;5.63;;
69305;SDS011;56427;51.580;4.656;2023-09-18T10:19:32;9.80;;;6.60;;
69305;SDS011;56427;51.580;4.656;2023-09-18T10:25:10;13.20;;;7.63;;
69305;SDS011;56427;51.580;4.656;2023-09-18T10:27:42;12.30;;;7.10;;
69305;SDS011;56427;51.580;4.656;2023-09-18T10:30:17;13.70;;;6.93;;
69305;SDS011;56427;51.580;4.656;2023-09-18T10:32:44;11.27;;;7.03;;
69305;SDS011;56427;51.580;4.656;2023-09-18T10:35:11;6.90;;;5.47;;
69305;SDS011;56427;51.580;4.656;2023-09-18T10:37:37;11.88;;;5.00;;
69305;SDS011;56427;51.580;4.656;2023-09-18T10:40:08;9.77;;;4.32;;
69305;SDS011;56427;51.580;4.656;2023-09-18T10:42:34;7.97;;;4.53;;
69305;SDS011;56427;51.580;4.656;2023-09-18T10:45:02;7.35;;;4.78;;
69305;SDS011;56427;51.580;4.656;2023-09-18T10:47:31;7.80;;;4.55;;
69305;SDS011;56427;51.580;4.656;2023-09-18T10:49:57;8.73;;;4.80;;
69305;SDS011;56427;51.580;4.656;2023-09-18T10:52:23;10.73;;;4.70;;
69305;SDS011;56427;51.580;4.656;2023-09-18T10:54:48;7.37;;;4.40;;
69305;SDS011;56427;51.580;4.656;2023-09-18T10:57:14;6.95;;;3.95;;
69305;SDS011;56427;51.580;4.656;2023-09-18T10:59:43;7.50;;;3.83;;
69305;SDS011;56427;51.580;4.656;2023-09-18T11:02:13;7.63;;;3.63;;
69305;SDS011;56427;51.580;4.656;2023-09-18T11:04:40;4.85;;;3.72;;
69305;SDS011;56427;51.580;4.656;2023-09-18T11:07:06;5.95;;;3.90;;
69305;SDS011;56427;51.580;4.656;2023-09-18T11:09:40;9.82;;;3.72;;
69305;SDS011;56427;51.580;4.656;2023-09-18T11:12:09;8.17;;;3.70;;
69305;SDS011;56427;51.580;4.656;2023-09-18T11:22:59;8.00;;;4.70;;
69305;SDS011;56427;51.580;4.656;2023-09-18T11:25:42;8.00;;;4.90;;
69305;SDS011;56427;51.580;4.656;2023-09-18T11:28:22;9.50;;;5.43;;
69305;SDS011;56427;51.580;4.656;2023-09-18T11:30:50;6.90;;;4.95;;
69305;SDS011;56427;51.580;4.656;2023-09-18T11:36:02;10.30;;;5.40;;
69305;SDS011;56427;51.580;4.656;2023-09-18T11:38:35;8.37;;;5.90;;
69305;SDS011;56427;51.580;4.656;2023-09-18T11:41:26;12.98;;;5.70;;
69305;SDS011;56427;51.580;4.656;2023-09-18T11:44:30;11.70;;;5.65;;
69305;SDS011;56427;51.580;4.656;2023-09-18T11:46:47;7.18;;;5.22;;
69305;SDS011;56427;51.580;4.656;2023-09-18T11:49:20;11.05;;;5.10;;
69305;SDS011;56427;51.580;4.656;2023-09-18T11:51:53;11.33;;;5.90;;
69305;SDS011;56427;51.580;4.656;2023-09-18T11:54:19;9.02;;;5.28;;
69305;SDS011;56427;51.580;4.656;2023-09-18T11:56:46;8.68;;;5.50;;
69305;SDS011;56427;51.580;4.656;2023-09-18T11:59:12;10.15;;;5.22;;
69305;SDS011;56427;51.580;4.656;2023-09-18T12:01:38;9.57;;;4.70;;
69305;SDS011;56427;51.580;4.656;2023-09-18T12:04:08;8.75;;;5.18;;
69305;SDS011;56427;51.580;4.656;2023-09-18T12:06:41;8.77;;;5.07;;
69305;SDS011;56427;51.580;4.656;2023-09-18T12:09:07;8.07;;;4.75;;
69305;SDS011;56427;51.580;4.656;2023-09-18T12:11:34;8.45;;;4.53;;
69305;SDS011;56427;51.580;4.656;2023-09-18T12:14:00;11.73;;;4.15;;
69305;SDS011;56427;51.580;4.656;2023-09-18T12:16:30;8.57;;;4.30;;
69305;SDS011;56427;51.580;4.656;2023-09-18T12:18:56;9.13;;;3.97;;
69305;SDS011;56427;51.580;4.656;2023-09-18T12:21:22;6.93;;;4.03;;
69305;SDS011;56427;51.580;4.656;2023-09-18T12:23:48;8.07;;;3.88;;
69305;SDS011;56427;51.580;4.656;2023-09-18T12:26:14;8.40;;;4.33;;
69305;SDS011;56427;51.580;4.656;2023-09-18T12:28:41;10.25;;;4.40;;
69305;SDS011;56427;51.580;4.656;2023-09-18T12:31:11;6.72;;;3.60;;
69305;SDS011;56427;51.580;4.656;2023-09-18T12:33:38;7.07;;;3.20;;
69305;SDS011;56427;51.580;4.656;2023-09-18T12:36:05;8.13;;;2.63;;
69305;SDS011;56427;51.580;4.656;2023-09-18T12:38:31;6.38;;;2.72;;
69305;SDS011;56427;51.580;4.656;2023-09-18T12:40:58;5.88;;;2.90;;
69305;SDS011;56427;51.580;4.656;2023-09-18T12:43:40;5.78;;;2.90;;
69305;SDS011;56427;51.580;4.656;2023-09-18T12:46:07;7.77;;;2.60;;
69305;SDS011;56427;51.580;4.656;2023-09-18T12:48:39;6.53;;;2.92;;
69305;SDS011;56427;51.580;4.656;2023-09-18T12:51:12;5.15;;;2.55;;
69305;SDS011;56427;51.580;4.656;2023-09-18T12:53:39;5.80;;;2.60;;
69305;SDS011;56427;51.580;4.656;2023-09-18T12:56:10;5.00;;;2.60;;
69305;SDS011;56427;51.580;4.656;2023-09-18T12:58:40;6.90;;;2.37;;
69305;SDS011;56427;51.580;4.656;2023-09-18T13:01:06;6.97;;;2.50;;
69305;SDS011;56427;51.580;4.656;2023-09-18T13:03:39;5.63;;;2.78;;
69305;SDS011;56427;51.580;4.656;2023-09-18T13:06:11;4.05;;;2.30;;
69305;SDS011;56427;51.580;4.656;2023-09-18T13:08:41;4.30;;;2.30;;
69305;SDS011;56427;51.580;4.656;2023-09-18T13:11:06;4.67;;;2.30;;
69305;SDS011;56427;51.580;4.656;2023-09-18T13:13:32;5.90;;;2.73;;
69305;SDS011;56427;51.580;4.656;2023-09-18T13:15:58;4.82;;;2.75;;
69305;SDS011;56427;51.580;4.656;2023-09-18T13:18:24;8.90;;;2.80;;
69305;SDS011;56427;51.580;4.656;2023-09-18T13:20:51;6.63;;;1.95;;
69305;SDS011;56427;51.580;4.656;2023-09-18T13:23:17;6.67;;;2.40;;
69305;SDS011;56427;51.580;4.656;2023-09-18T13:25:43;7.18;;;2.30;;
69305;SDS011;56427;51.580;4.656;2023-09-18T13:28:11;6.85;;;2.20;;
69305;SDS011;56427;51.580;4.656;2023-09-18T13:30:38;4.53;;;1.95;;
69305;SDS011;56427;51.580;4.656;2023-09-18T13:33:08;5.43;;;2.20;;
69305;SDS011;56427;51.580;4.656;2023-09-18T13:35:39;5.82;;;2.15;;
69305;SDS011;56427;51.580;4.656;2023-09-18T13:38:06;7.05;;;2.53;;
69305;SDS011;56427;51.580;4.656;2023-09-18T13:40:42;4.90;;;2.00;;
69305;SDS011;56427;51.580;4.656;2023-09-18T13:43:09;6.25;;;2.30;;
69305;SDS011;56427;51.580;4.656;2023-09-18T13:45:35;7.90;;;2.30;;
69305;SDS011;56427;51.580;4.656;2023-09-18T13:48:05;5.75;;;2.10;;
69305;SDS011;56427;51.580;4.656;2023-09-18T13:50:31;4.28;;;1.98;;
69305;SDS011;56427;51.580;4.656;2023-09-18T13:53:01;5.75;;;2.25;;
69305;SDS011;56427;51.580;4.656;2023-09-18T13:55:28;4.90;;;2.15;;
69305;SDS011;56427;51.580;4.656;2023-09-18T13:57:54;5.83;;;2.20;;
69305;SDS011;56427;51.580;4.656;2023-09-18T14:00:19;5.33;;;2.10;;
69305;SDS011;56427;51.580;4.656;2023-09-18T14:02:45;5.68;;;2.30;;
69305;SDS011;56427;51.580;4.656;2023-09-18T14:05:11;5.18;;;2.00;;
69305;SDS011;56427;51.580;4.656;2023-09-18T14:07:38;4.20;;;2.15;;
69305;SDS011;56427;51.580;4.656;2023-09-18T14:10:04;4.97;;;2.03;;
69305;SDS011;56427;51.580;4.656;2023-09-18T14:12:35;3.80;;;1.90;;
69305;SDS011;56427;51.580;4.656;2023-09-18T14:15:01;6.77;;;2.03;;
69305;SDS011;56427;51.580;4.656;2023-09-18T14:17:26;4.88;;;1.90;;
69305;SDS011;56427;51.580;4.656;2023-09-18T14:19:52;8.57;;;1.90;;
69305;SDS011;56427;51.580;4.656;2023-09-18T14:22:18;17.85;;;4.05;;
69305;SDS011;56427;51.580;4.656;2023-09-18T14:24:44;5.03;;;1.17;;
69305;SDS011;56427;51.580;4.656;2023-09-18T14:27:10;15.15;;;2.30;;
69305;SDS011;56427;51.580;4.656;2023-09-18T14:29:37;10.07;;;1.80;;
69305;SDS011;56427;51.580;4.656;2023-09-18T14:32:03;4.38;;;1.13;;
69305;SDS011;56427;51.580;4.656;2023-09-18T14:34:29;2.60;;;1.00;;
69305;SDS011;56427;51.580;4.656;2023-09-18T14:36:55;4.80;;;1.20;;
69305;SDS011;56427;51.580;4.656;2023-09-18T14:39:21;6.50;;;1.52;;
69305;SDS011;56427;51.580;4.656;2023-09-18T14:41:47;4.65;;;1.50;;
69305;SDS011;56427;51.580;4.656;2023-09-18T14:44:13;6.67;;;1.60;;
69305;SDS011;56427;51.580;4.656;2023-09-18T14:46:39;6.45;;;1.70;;
69305;SDS011;56427;51.580;4.656;2023-09-18T14:49:05;5.22;;;1.70;;
69305;SDS011;56427;51.580;4.656;2023-09-18T14:51:32;7.90;;;2.10;;
69305;SDS011;56427;51.580;4.656;2023-09-18T14:53:59;6.63;;;2.10;;
69305;SDS011;56427;51.580;4.656;2023-09-18T14:56:25;5.80;;;2.42;;